Ada, Kansas
Current Conditions -  °F | °C
As of 12:53 AM on Wednesday 26 Nov 2014 (Local Time) from KSLN Reporting Station
Overcast Overcast  
Wind Chill: 38°   Ceiling: 9500
Heat Index: 45°   Visibility: 10mi
Dew Point: 28°   Wind: 15mph
Humidity: 52%   Direction: 220°SW
Pressure: 29.93"   Gusts: NA
Location:  39.1542°N, 97.5941°W
Report Text: KSLN 260653Z 22013KT 10SM SCT075 OVC095 07/M02 A2993 RMK AO2 SLP137 T00721022
Loading
Personal Weather Stations






























Interactive Weather Map New forecast layout! Learn more

10-Day Weather Forecast

Advertisements
Track Severe Weather on mobile